Time;durP1;ratioP1;P1;durP2;ratioP2;P2;SDS_P1;SDS_P2;PMS_P1;PMS_P2;Temp;Humidity;BMP_temperature;BMP_pressure;BME280_temperature;BME280_humidity;BME280_pressure;Samples;Min_cycle;Max_cycle;Signal;HPM_P1;HPM_P2
2023/01/11 00:00:10;;;;;;;;;;;;;;;5.91;100.00;99217.22;4255280;33;19990;-76
2023/01/11 00:02:59;;;;;;;;;;;;;;;5.78;100.00;99215.44;4256776;33;19951;-76
2023/01/11 00:05:36;;;;;;;;;;;;;;;5.62;100.00;99221.28;4256048;33;20309;-76
2023/01/11 00:08:03;;;;;;;;;;;;;;;5.69;100.00;99222.06;4256686;33;19950;-75
2023/01/11 00:10:32;;;;;;;;;;;;;;;5.80;100.00;99229.41;4256024;33;19946;-75
2023/01/11 00:12:59;;;;;;;;;;;;;;;5.92;100.00;99226.88;4256423;33;19954;-76
2023/01/11 00:15:33;;;;;;;;;;;;;;;5.91;100.00;99229.78;4256595;33;20240;-75
2023/01/11 00:18:01;;;;;;;;;;;;;;;5.74;100.00;99226.75;4254987;33;20003;-75
2023/01/11 00:20:27;;;;;;;;;;;;;;;5.75;100.00;99226.56;4256033;33;19948;-77
2023/01/11 00:22:54;;;;;;;;;;;;;;;5.56;100.00;99222.94;4256821;33;19958;-75
2023/01/11 00:25:20;;;;;;;;;;;;;;;5.33;100.00;99233.28;4257629;33;20051;-75
2023/01/11 00:27:48;;;;;;;;;;;;;;;5.45;100.00;99227.09;4270576;33;19956;-75
2023/01/11 00:30:15;;;;;;;;;;;;;;;5.69;100.00;99224.72;4257088;33;20303;-75
2023/01/11 00:32:42;;;;;;;;;;;;;;;5.67;100.00;99231.34;4256888;33;19961;-74
2023/01/11 00:35:08;;;;;;;;;;;;;;;5.69;100.00;99231.94;4270586;33;20342;-75
2023/01/11 00:37:34;;;;;;;;;;;;;;;5.44;100.00;99225.47;4270411;33;19945;-76
2023/01/11 00:40:01;;;;;;;;;;;;;;;5.37;100.00;99223.84;4270551;33;19942;-76
2023/01/11 00:48:01;;;;;;;;;;;;;;;5.25;100.00;99242.38;4256934;33;19953;-74
2023/01/11 00:50:29;;;;;;;;;;;;;;;5.45;100.00;99240.44;4269313;33;19954;-74
2023/01/11 00:52:56;;;;;;;;;;;;;;;5.75;100.00;99247.94;4271951;33;19957;-75
2023/01/11 00:55:26;;;;;;;;;;;;;;;5.80;100.00;99245.44;4272563;33;20271;-75
2023/01/11 00:57:53;;;;;;;;;;;;;;;5.55;100.00;99244.50;4272635;33;20269;-75
2023/01/11 03:00:24;;;;;;;;;;;;;;;6.08;100.00;99204.19;4966740;27;19964;-75
2023/01/11 03:03:08;;;;;;;;;;;;;;;5.96;100.00;99213.91;4287554;33;19951;-76
2023/01/11 03:05:37;;;;;;;;;;;;;;;6.13;100.00;99208.91;4286810;33;20289;-75
2023/01/11 03:08:33;;;;;;;;;;;;;;;6.08;100.00;99212.22;4287436;33;19952;-75
2023/01/11 03:11:02;;;;;;;;;;;;;;;5.96;100.00;99212.06;4242677;33;19962;-75
2023/01/11 03:13:31;;;;;;;;;;;;;;;6.08;100.00;99200.69;4242495;33;19976;-76
2023/01/11 03:16:00;;;;;;;;;;;;;;;5.87;100.00;99212.50;4242747;33;19984;-76
2023/01/11 03:18:27;;;;;;;;;;;;;;;6.08;100.00;99201.53;4242546;33;19979;-76
2023/01/11 03:21:12;;;;;;;;;;;;;;;6.18;100.00;99199.19;4242503;33;19942;-76
2023/01/11 03:24:03;;;;;;;;;;;;;;;6.22;100.00;99188.06;4242610;33;19990;-76
2023/01/11 03:26:46;;;;;;;;;;;;;;;6.16;100.00;99189.75;4242606;33;19942;-76
2023/01/11 03:29:19;;;;;;;;;;;;;;;6.32;100.00;99188.41;4242900;33;19939;-76
2023/01/11 03:31:54;;;;;;;;;;;;;;;5.94;100.00;99191.94;4242369;33;19945;-75
2023/01/11 03:34:29;;;;;;;;;;;;;;;6.01;100.00;99198.06;4241848;33;19979;-75
2023/01/11 03:36:59;;;;;;;;;;;;;;;6.11;100.00;99192.22;4242229;33;19946;-76
2023/01/11 03:39:30;;;;;;;;;;;;;;;6.13;100.00;99191.00;4242327;33;20349;-76
2023/01/11 03:41:58;;;;;;;;;;;;;;;6.07;100.00;99186.50;4242551;33;19934;-75
2023/01/11 03:44:28;;;;;;;;;;;;;;;5.69;100.00;99184.66;4242237;33;20038;-75
2023/01/11 03:46:58;;;;;;;;;;;;;;;5.94;100.00;99182.03;4254128;33;20036;-75
2023/01/11 03:49:29;;;;;;;;;;;;;;;6.07;100.00;99181.16;4286873;33;19934;-75
2023/01/11 03:51:56;;;;;;;;;;;;;;;5.82;100.00;99189.94;4286718;33;19945;-75
2023/01/11 03:54:24;;;;;;;;;;;;;;;5.85;100.00;99193.22;4286758;33;19963;-75
2023/01/11 03:56:55;;;;;;;;;;;;;;;5.81;100.00;99187.47;4286734;33;19959;-75
2023/01/11 03:59:22;;;;;;;;;;;;;;;5.78;100.00;99178.03;4286824;33;19958;-76
2023/01/11 04:01:48;;;;;;;;;;;;;;;5.73;100.00;99169.84;4286593;33;20059;-75
2023/01/11 04:04:14;;;;;;;;;;;;;;;5.55;100.00;99183.09;4286751;33;19971;-75
2023/01/11 04:06:40;;;;;;;;;;;;;;;5.68;100.00;99180.38;4283353;33;19949;-75
2023/01/11 04:09:06;;;;;;;;;;;;;;;5.87;100.00;99169.75;4270454;33;19994;-75
2023/01/11 04:11:33;;;;;;;;;;;;;;;5.77;100.00;99170.22;4270739;33;19938;-76
2023/01/11 04:14:00;;;;;;;;;;;;;;;5.60;100.00;99169.91;4256434;33;19950;-75
2023/01/11 04:16:26;;;;;;;;;;;;;;;5.48;100.00;99168.97;4256324;33;20268;-75
2023/01/11 04:18:52;;;;;;;;;;;;;;;5.39;100.00;99169.22;4256228;33;19946;-75
2023/01/11 04:21:18;;;;;;;;;;;;;;;5.35;100.00;99173.31;4255040;33;20309;-75
2023/01/11 04:23:45;;;;;;;;;;;;;;;5.40;100.00;99170.81;4241818;33;19950;-75
2023/01/11 04:26:18;;;;;;;;;;;;;;;5.50;100.00;99174.91;4242123;33;19982;-74
2023/01/11 04:28:44;;;;;;;;;;;;;;;5.41;100.00;99169.81;4244778;33;19947;-76
2023/01/11 04:31:10;;;;;;;;;;;;;;;5.53;100.00;99174.47;4243537;33;20081;-77
2023/01/11 04:33:37;;;;;;;;;;;;;;;5.41;100.00;99169.81;4243746;33;20335;-74
2023/01/11 04:36:04;;;;;;;;;;;;;;;5.65;100.00;99162.09;4215278;34;20454;-75
2023/01/11 04:38:31;;;;;;;;;;;;;;;5.49;100.00;99162.56;4228140;34;19957;-75
2023/01/11 04:43:43;;;;;;;;;;;;;;;5.59;100.00;99157.59;4229965;34;19939;-75
2023/01/11 04:46:09;;;;;;;;;;;;;;;5.54;100.00;99160.09;4187298;34;19948;-75
2023/01/11 04:48:38;;;;;;;;;;;;;;;5.51;100.00;99165.88;4188957;34;20365;-75
2023/01/11 04:51:04;;;;;;;;;;;;;;;5.72;100.00;99159.38;4193102;34;19946;-75
2023/01/11 04:53:31;;;;;;;;;;;;;;;5.40;100.00;99154.81;4202345;34;19969;-76
2023/01/11 04:56:01;;;;;;;;;;;;;;;5.61;100.00;99164.34;4227707;34;19942;-75
2023/01/11 04:58:28;;;;;;;;;;;;;;;5.53;100.00;99158.44;4230618;34;20349;-75
2023/01/11 05:00:54;;;;;;;;;;;;;;;5.51;100.00;99166.66;4215294;34;19959;-74
2023/01/11 05:03:20;;;;;;;;;;;;;;;5.52;100.00;99164.81;4216583;34;20340;-75
2023/01/11 05:05:56;;;;;;;;;;;;;;;5.52;100.00;99167.47;4216121;34;19942;-75
2023/01/11 05:08:26;;;;;;;;;;;;;;;5.05;100.00;99152.47;4244188;33;19947;-75
2023/01/11 05:10:53;;;;;;;;;;;;;;;4.76;100.00;99158.31;4243191;33;19946;-75
2023/01/11 05:13:19;;;;;;;;;;;;;;;4.99;100.00;99158.66;4244166;33;20061;-75
2023/01/11 05:15:46;;;;;;;;;;;;;;;4.99;100.00;99158.66;4244040;33;19952;-75
2023/01/11 05:18:13;;;;;;;;;;;;;;;4.78;100.00;99151.72;4257324;33;19997;-74
2023/01/11 05:20:39;;;;;;;;;;;;;;;4.92;100.00;99155.19;4258072;33;19956;-74
2023/01/11 05:23:05;;;;;;;;;;;;;;;4.93;100.00;99153.34;4258341;33;19938;-74
2023/01/11 05:25:31;;;;;;;;;;;;;;;5.18;100.00;99150.78;4258145;33;20241;-75
2023/01/11 05:27:57;;;;;;;;;;;;;;;5.18;100.00;99156.13;4258272;33;19956;-75
2023/01/11 05:30:24;;;;;;;;;;;;;;;5.16;100.00;99155.53;4228770;34;19946;-76
2023/01/11 05:32:50;;;;;;;;;;;;;;;5.30;100.00;99151.78;4229917;34;19946;-75
2023/01/11 05:35:16;;;;;;;;;;;;;;;5.17;100.00;99144.66;4229082;34;19949;-76
2023/01/11 05:37:43;;;;;;;;;;;;;;;4.48;100.00;99146.03;4229530;33;19992;-76
2023/01/11 05:40:09;;;;;;;;;;;;;;;5.03;100.00;99135.88;4240371;33;19978;-76
2023/01/11 05:42:35;;;;;;;;;;;;;;;4.95;100.00;99133.44;4228326;34;19943;-76
2023/01/11 05:47:46;;;;;;;;;;;;;;;5.18;100.00;99129.44;4229627;34;19946;-76
2023/01/11 05:50:12;;;;;;;;;;;;;;;5.23;100.00;99132.28;4229509;34;19939;-76
2023/01/11 05:52:38;;;;;;;;;;;;;;;5.08;100.00;99114.69;4229427;34;19994;-77
2023/01/11 05:55:05;;;;;;;;;;;;;;;5.23;100.00;99116.28;4243842;33;20008;-76
2023/01/11 05:57:31;;;;;;;;;;;;;;;4.90;100.00;99118.06;4256253;33;20344;-75
2023/01/11 05:59:57;;;;;;;;;;;;;;;4.33;100.00;99112.44;4258035;33;19980;-75
2023/01/11 06:02:24;;;;;;;;;;;;;;;4.14;100.00;99107.94;4268795;33;19979;-76
2023/01/11 06:04:50;;;;;;;;;;;;;;;4.40;100.00;99116.94;4258236;33;19946;-75
2023/01/11 06:07:16;;;;;;;;;;;;;;;4.48;100.00;99114.03;4258373;33;19956;-75
2023/01/11 06:09:48;;;;;;;;;;;;;;;4.70;100.00;99107.44;4257231;33;20380;-76
2023/01/11 06:12:14;;;;;;;;;;;;;;;4.91;100.00;99108.19;4257430;33;19956;-76
2023/01/11 06:14:40;;;;;;;;;;;;;;;4.78;100.00;99103.72;4257723;33;19938;-75
2023/01/11 06:17:07;;;;;;;;;;;;;;;4.50;100.00;99101.31;4257571;33;19968;-75
2023/01/11 06:19:33;;;;;;;;;;;;;;;4.21;100.00;99103.41;4261274;33;19941;-75
2023/01/11 06:21:59;;;;;;;;;;;;;;;3.82;100.00;99110.41;4271340;33;19961;-74
2023/01/11 06:24:25;;;;;;;;;;;;;;;3.94;100.00;99108.78;4271418;33;20309;-76
2023/01/11 06:26:52;;;;;;;;;;;;;;;3.94;100.00;99108.78;4281512;33;20011;-76
2023/01/11 06:29:18;;;;;;;;;;;;;;;4.06;100.00;99110.81;4285540;33;20291;-75
2023/01/11 06:31:44;;;;;;;;;;;;;;;4.08;100.00;99106.09;4285465;33;19952;-74
2023/01/11 06:34:10;;;;;;;;;;;;;;;3.99;100.00;99100.16;4285559;33;19967;-75
2023/01/11 06:36:37;;;;;;;;;;;;;;;4.12;100.00;99102.81;4287540;33;19949;-76
2023/01/11 06:39:04;;;;;;;;;;;;;;;4.18;100.00;99098.53;4287483;33;20255;-76
2023/01/11 06:41:30;;;;;;;;;;;;;;;4.05;100.00;99099.31;4287350;33;19953;-76
2023/01/11 06:43:56;;;;;;;;;;;;;;;4.02;100.00;99101.59;4271482;33;20289;-75
2023/01/11 06:46:23;;;;;;;;;;;;;;;4.06;100.00;99100.16;4271410;33;20381;-76
2023/01/11 06:48:49;;;;;;;;;;;;;;;4.00;100.00;99097.31;4271413;33;19980;-76
2023/01/11 06:51:15;;;;;;;;;;;;;;;3.62;100.00;99097.88;4256689;33;19966;-76
2023/01/11 06:53:42;;;;;;;;;;;;;;;4.03;100.00;99092.56;4257174;33;19938;-77
2023/01/11 06:56:11;;;;;;;;;;;;;;;4.16;100.00;99080.06;4257097;33;20301;-76
2023/01/11 06:58:37;;;;;;;;;;;;;;;4.04;100.00;99086.19;4256879;33;19942;-76
2023/01/11 07:01:03;;;;;;;;;;;;;;;4.06;100.00;99078.84;4244297;33;19968;-74
2023/01/11 07:03:29;;;;;;;;;;;;;;;3.95;100.00;99078.41;4256883;33;19941;-76
2023/01/11 07:05:56;;;;;;;;;;;;;;;3.70;100.00;99080.06;4241889;33;19953;-75
2023/01/11 07:08:25;;;;;;;;;;;;;;;3.80;100.00;99083.16;4243054;33;20321;-75
2023/01/11 07:10:51;;;;;;;;;;;;;;;3.79;100.00;99084.16;4242755;33;19943;-74
2023/01/11 07:13:18;;;;;;;;;;;;;;;3.53;100.00;99085.78;4242480;33;19954;-73
2023/01/11 07:15:47;;;;;;;;;;;;;;;3.89;100.00;99079.22;4252566;33;19954;-74
2023/01/11 07:18:13;;;;;;;;;;;;;;;3.53;100.00;99083.12;4256785;33;20262;-74
2023/01/11 07:20:40;;;;;;;;;;;;;;;3.71;100.00;99073.72;4256754;33;19956;-74
2023/01/11 07:23:12;;;;;;;;;;;;;;;3.82;100.00;99073.91;4274334;33;19955;-74
2023/01/11 07:25:40;;;;;;;;;;;;;;;3.97;100.00;99071.06;4248612;33;19950;-75
2023/01/11 07:28:07;;;;;;;;;;;;;;;3.89;100.00;99079.22;4243295;33;19952;-74
2023/01/11 07:30:34;;;;;;;;;;;;;;;3.71;100.00;99081.72;4242542;33;20052;-74
2023/01/11 07:33:02;;;;;;;;;;;;;;;4.02;100.00;99066.94;4242155;33;19987;-75
2023/01/11 07:35:29;;;;;;;;;;;;;;;3.57;100.00;99071.03;4242603;33;20124;-75
2023/01/11 07:37:55;;;;;;;;;;;;;;;3.95;100.00;99078.41;4267589;33;20321;-75
2023/01/11 07:40:21;;;;;;;;;;;;;;;3.92;100.00;99084.16;4270649;33;19950;-75
2023/01/11 07:45:34;;;;;;;;;;;;;;;3.90;100.00;99083.56;4269962;33;19952;-75
2023/01/11 07:48:01;;;;;;;;;;;;;;;3.83;100.00;99074.75;4270616;33;20334;-75
2023/01/11 07:50:28;;;;;;;;;;;;;;;3.62;100.00;99079.25;4270333;33;19956;-75
2023/01/11 07:52:54;;;;;;;;;;;;;;;3.60;100.00;99081.25;4270299;33;19946;-73
2023/01/11 07:55:20;;;;;;;;;;;;;;;3.87;100.00;99081.28;4270508;33;19957;-73
2023/01/11 07:57:46;;;;;;;;;;;;;;;3.61;100.00;99082.91;4285504;33;19938;-74
2023/01/11 08:00:13;;;;;;;;;;;;;;;3.82;100.00;99083.75;4286753;33;19953;-74
2023/01/11 08:02:39;;;;;;;;;;;;;;;3.94;100.00;99082.12;4284754;33;19949;-74
2023/01/11 08:05:06;;;;;;;;;;;;;;;3.33;100.00;99076.94;4283803;33;19963;-74
2023/01/11 08:07:32;;;;;;;;;;;;;;;3.26;100.00;99079.59;4272569;33;19945;-75
2023/01/11 08:09:59;;;;;;;;;;;;;;;3.22;100.00;99078.34;4273457;33;19988;-75
2023/01/11 08:15:12;;;;;;;;;;;;;;;3.39;100.00;99076.13;4273959;33;19960;-74
2023/01/11 08:17:39;;;;;;;;;;;;;;;3.45;100.00;99078.00;4271359;33;19977;-73
2023/01/11 08:20:05;;;;;;;;;;;;;;;3.43;100.00;99080.00;4272047;33;20331;-74
2023/01/11 08:22:32;;;;;;;;;;;;;;;3.37;100.00;99080.84;4269771;33;19944;-74
2023/01/11 08:24:59;;;;;;;;;;;;;;;3.69;100.00;99081.09;4265001;33;19985;-74
2023/01/11 08:27:25;;;;;;;;;;;;;;;3.82;100.00;99073.09;4264431;33;19987;-72
2023/01/11 08:29:51;;;;;;;;;;;;;;;3.77;100.00;99075.56;4261429;33;19990;-74
2023/01/11 08:32:17;;;;;;;;;;;;;;;3.93;100.00;99069.81;4265181;33;20008;-73
2023/01/11 08:34:43;;;;;;;;;;;;;;;3.84;100.00;99065.72;4263330;33;19995;-72
2023/01/11 08:37:10;;;;;;;;;;;;;;;3.81;100.00;99066.97;4269657;33;19938;-74
2023/01/11 08:39:36;;;;;;;;;;;;;;;3.79;100.00;99065.53;4268925;33;19952;-75
2023/01/11 08:42:02;;;;;;;;;;;;;;;4.10;100.00;99064.06;4270516;33;19945;-75
2023/01/11 08:44:29;;;;;;;;;;;;;;;3.91;100.00;99066.56;4270246;33;20002;-74
2023/01/11 08:46:55;;;;;;;;;;;;;;;4.30;100.00;99058.72;4254689;33;20270;-74
2023/01/11 08:49:29;;;;;;;;;;;;;;;4.59;100.00;99062.75;4255228;33;20029;-74
2023/01/11 08:51:55;;;;;;;;;;;;;;;4.64;100.00;99060.28;4255212;33;19964;-75
2023/01/11 08:54:22;;;;;;;;;;;;;;;4.29;100.00;99049.91;4256028;33;19946;-73
2023/01/11 08:56:48;;;;;;;;;;;;;;;4.32;100.00;99046.84;4256090;33;19938;-74
2023/01/11 08:59:14;;;;;;;;;;;;;;;4.46;100.00;99046.78;4255944;33;19954;-75
2023/01/11 09:01:40;;;;;;;;;;;;;;;4.11;100.00;99055.06;4264858;33;19950;-75
2023/01/11 09:04:06;;;;;;;;;;;;;;;4.29;100.00;99047.25;4270137;33;19971;-74
2023/01/11 09:06:33;;;;;;;;;;;;;;;4.19;100.00;99037.00;4268318;33;20324;-74
2023/01/11 09:08:59;;;;;;;;;;;;;;;4.32;100.00;99041.50;4270065;33;20003;-74
2023/01/11 09:14:10;;;;;;;;;;;;;;;4.32;100.00;99041.50;4271993;33;20336;-75
2023/01/11 09:16:36;;;;;;;;;;;;;;;4.35;100.00;99034.91;4272536;33;19953;-74
2023/01/11 09:19:03;;;;;;;;;;;;;;;4.58;100.00;99033.63;4274744;33;19952;-75
2023/01/11 09:21:29;;;;;;;;;;;;;;;4.65;100.00;99039.75;4274490;33;20043;-75
2023/01/11 09:23:56;;;;;;;;;;;;;;;4.45;100.00;99047.81;4274587;33;19953;-75
2023/01/11 09:26:22;;;;;;;;;;;;;;;4.64;100.00;99043.44;4273346;33;19960;-75
2023/01/11 09:28:52;;;;;;;;;;;;;;;4.87;100.00;99037.62;4274344;33;19954;-74
2023/01/11 09:31:19;;;;;;;;;;;;;;;4.70;100.00;99043.41;4274738;33;19977;-76
2023/01/11 09:33:46;;;;;;;;;;;;;;;4.95;100.00;99024.03;4274839;33;20000;-75
2023/01/11 09:36:13;;;;;;;;;;;;;;;4.91;100.00;99038.81;4274302;33;19954;-75
2023/01/11 09:38:42;;;;;;;;;;;;;;;5.23;100.00;99030.84;4274260;33;19946;-75
2023/01/11 09:41:18;;;;;;;;;;;;;;;4.76;100.00;99020.41;4274427;33;19955;-75
2023/01/11 09:44:13;;;;;;;;;;;;;;;4.77;100.00;99021.22;4272655;33;20351;-75
2023/01/11 09:46:48;;;;;;;;;;;;;;;4.63;100.00;99015.16;4254106;33;20273;-74
2023/01/11 09:49:19;;;;;;;;;;;;;;;4.52;100.00;99016.63;4261015;33;19967;-75
2023/01/11 09:51:50;;;;;;;;;;;;;;;4.57;100.00;99011.47;4258450;33;20360;-74
2023/01/11 09:54:27;;;;;;;;;;;;;;;4.99;100.00;99025.22;4257782;33;19968;-75
2023/01/11 09:57:00;;;;;;;;;;;;;;;4.89;100.00;99016.88;4256833;33;19946;-74
2023/01/11 09:59:33;;;;;;;;;;;;;;;4.96;100.00;99014.97;4258263;33;19946;-74
2023/01/11 10:02:13;;;;;;;;;;;;;;;4.69;100.00;99008.94;4257133;33;20051;-71
2023/01/11 10:04:44;;;;;;;;;;;;;;;4.93;100.00;99010.09;4259121;33;19949;-73
2023/01/11 10:07:11;;;;;;;;;;;;;;;4.76;100.00;99003.59;4256539;33;19964;-73
2023/01/11 10:09:57;;;;;;;;;;;;;;;4.73;100.00;98996.84;4243577;33;19939;-70
2023/01/11 10:12:24;;;;;;;;;;;;;;;4.67;100.00;99001.16;4243768;33;19938;-72
2023/01/11 10:14:53;;;;;;;;;;;;;;;4.84;100.00;98990.03;4242545;33;20081;-71
2023/01/11 10:17:33;;;;;;;;;;;;;;;5.00;100.00;98978.84;4243142;33;19962;-72
2023/01/11 10:20:04;;;;;;;;;;;;;;;5.12;100.00;98975.47;4257809;33;20405;-71
2023/01/11 10:22:38;;;;;;;;;;;;;;;5.01;100.00;98975.16;4228203;34;19947;-72
2023/01/11 10:25:23;;;;;;;;;;;;;;;5.11;100.00;98969.34;4241169;33;19952;-73
2023/01/11 10:27:57;;;;;;;;;;;;;;;5.06;100.00;98972.66;4230287;33;19946;-73
2023/01/11 10:33:27;;;;;;;;;;;;;;;5.22;100.00;98960.62;4242612;33;19946;-72
2023/01/11 10:39:10;;;;;;;;;;;;;;;5.52;100.00;98961.81;4243071;33;20321;-72
2023/01/11 10:41:53;;;;;;;;;;;;;;;5.54;100.00;98967.78;4228392;33;19943;-72
2023/01/11 10:44:27;;;;;;;;;;;;;;;5.16;100.00;98966.03;4226959;34;19981;-72
2023/01/11 10:46:55;;;;;;;;;;;;;;;5.44;100.00;98969.09;4228919;34;19946;-72
2023/01/11 10:49:27;;;;;;;;;;;;;;;4.99;100.00;98958.50;4201222;34;19936;-72
2023/01/11 10:51:56;;;;;;;;;;;;;;;5.28;100.00;98943.75;4212869;34;20310;-73
2023/01/11 10:54:30;;;;;;;;;;;;;;;5.53;100.00;98942.09;4214941;34;19943;-72
2023/01/11 10:57:16;;;;;;;;;;;;;;;5.52;100.00;98949.31;4213944;34;19949;-72
2023/01/11 10:59:59;;;;;;;;;;;;;;;5.73;100.00;98940.06;4204200;34;19954;-73
2023/01/11 11:02:35;;;;;;;;;;;;;;;5.93;100.00;98939.06;4200255;34;19947;-72
2023/01/11 11:05:06;;;;;;;;;;;;;;;5.78;100.00;98932.22;4187451;34;19959;-71
2023/01/11 11:07:54;;;;;;;;;;;;;;;5.50;100.00;98931.88;4207392;34;20340;-72
2023/01/11 11:10:27;;;;;;;;;;;;;;;5.48;100.00;98932.09;4214808;34;20356;-72
2023/01/11 11:13:01;;;;;;;;;;;;;;;5.59;100.00;98926.03;4214588;34;19961;-73
2023/01/11 11:15:33;;;;;;;;;;;;;;;5.57;100.00;98929.97;4214487;34;20299;-72
2023/01/11 11:17:59;;;;;;;;;;;;;;;5.74;100.00;98920.31;4214829;34;19987;-72
2023/01/11 11:20:30;;;;;;;;;;;;;;;5.79;100.00;98922.34;4213136;33;19981;-71
2023/01/11 11:22:57;;;;;;;;;;;;;;;5.89;100.00;98911.13;4212935;33;19957;-71
2023/01/11 11:25:26;;;;;;;;;;;;;;;5.85;100.00;98910.75;4214578;34;19948;-71
2023/01/11 11:28:19;;;;;;;;;;;;;;;5.93;100.00;98912.34;4239724;33;20295;-72
2023/01/11 11:30:59;;;;;;;;;;;;;;;6.10;100.00;98908.06;4224185;33;19943;-71
2023/01/11 11:33:42;;;;;;;;;;;;;;;6.59;100.00;98909.91;4242048;33;19964;-72
2023/01/11 11:36:16;;;;;;;;;;;;;;;6.17;100.00;98906.13;4242726;33;19942;-72
2023/01/11 11:39:01;;;;;;;;;;;;;;;6.21;100.00;98897.63;4242334;33;19968;-71
2023/01/11 11:41:27;;;;;;;;;;;;;;;5.91;100.00;98888.50;4242935;33;19952;-71
2023/01/11 11:44:07;;;;;;;;;;;;;;;5.72;100.00;98879.66;4256850;33;20056;-71
2023/01/11 11:46:33;;;;;;;;;;;;;;;5.77;100.00;98881.66;4256344;33;19960;-71
2023/01/11 11:49:11;;;;;;;;;;;;;;;6.18;100.00;98875.66;4269706;33;19990;-73
2023/01/11 11:51:38;;;;;;;;;;;;;;;5.93;100.00;98874.91;4256821;33;19955;-73
2023/01/11 11:54:04;;;;;;;;;;;;;;;6.01;100.00;98855.94;4242597;33;19943;-73
2023/01/11 11:56:34;;;;;;;;;;;;;;;6.25;100.00;98850.72;4241122;33;19942;-72
2023/01/11 11:59:08;;;;;;;;;;;;;;;5.85;100.00;98846.62;4240111;33;20278;-72
2023/01/11 12:01:35;;;;;;;;;;;;;;;6.38;100.00;98834.47;4417207;28;20207;-71
2023/01/11 12:04:29;;;;;;;;;;;;;;;6.15;100.00;98833.34;4264383;33;19971;-72
2023/01/11 12:07:14;;;;;;;;;;;;;;;6.04;100.00;98826.09;4248925;33;19979;-72
2023/01/11 12:09:43;;;;;;;;;;;;;;;5.90;100.00;98821.91;4228449;33;19954;-71
2023/01/11 12:12:15;;;;;;;;;;;;;;;6.33;100.00;98815.62;4222530;33;20564;-72
2023/01/11 12:14:41;;;;;;;;;;;;;;;6.31;100.00;98817.72;4206671;34;20332;-70
2023/01/11 12:17:24;;;;;;;;;;;;;;;6.16;100.00;98800.22;4210046;34;19958;-71
2023/01/11 12:19:50;;;;;;;;;;;;;;;6.50;100.00;98800.56;4209549;34;19947;-71
2023/01/11 12:22:21;;;;;;;;;;;;;;;6.32;100.00;98797.97;4191400;34;20380;-70
2023/01/11 12:25:01;;;;;;;;;;;;;;;6.28;100.00;98786.09;4199561;34;19981;-71
2023/01/11 12:27:37;;;;;;;;;;;;;;;6.11;100.00;98792.06;4223138;34;20261;-72
2023/01/11 12:30:07;;;;;;;;;;;;;;;6.13;100.00;98789.19;4219883;34;19978;-72
2023/01/11 12:32:44;;;;;;;;;;;;;;;6.35;100.00;98792.97;4222482;34;20702;-72
2023/01/11 12:35:11;;;;;;;;;;;;;;;6.08;100.00;98792.53;4211563;34;19959;-72
2023/01/11 12:37:55;;;;;;;;;;;;;;;6.36;100.00;98775.06;4223304;34;19947;-72
2023/01/11 12:40:21;;;;;;;;;;;;;;;6.43;100.00;98773.13;4233423;33;20895;-72
2023/01/11 12:42:48;;;;;;;;;;;;;;;6.07;100.00;98774.84;4237930;33;20261;-72
2023/01/11 12:45:37;;;;;;;;;;;;;;;6.47;100.00;98768.94;4258738;33;20290;-71
2023/01/11 12:48:03;;;;;;;;;;;;;;;6.24;100.00;98766.19;4265104;33;19993;-72
2023/01/11 12:50:47;;;;;;;;;;;;;;;6.04;100.00;98764.59;4280746;33;19951;-71
2023/01/11 12:53:32;;;;;;;;;;;;;;;6.58;100.00;98763.84;4294867;33;19956;-70
2023/01/11 12:56:07;;;;;;;;;;;;;;;6.39;100.00;98750.53;4312636;33;19967;-71
2023/01/11 12:58:52;;;;;;;;;;;;;;;6.24;100.00;98744.78;4311919;33;20344;-71
2023/01/11 13:01:33;;;;;;;;;;;;;;;6.13;100.00;98739.19;4312982;33;19945;-71
2023/01/11 13:04:09;;;;;;;;;;;;;;;6.27;100.00;98730.97;4310718;33;19968;-71
2023/01/11 13:06:52;;;;;;;;;;;;;;;5.97;100.00;98729.16;4301172;33;20357;-70
2023/01/11 13:09:39;;;;;;;;;;;;;;;5.96;100.00;98727.47;4311922;33;19974;-70
2023/01/11 13:12:17;;;;;;;;;;;;;;;6.59;100.00;98711.97;4311276;33;19962;-71
2023/01/11 13:14:46;;;;;;;;;;;;;;;6.01;100.00;98714.28;4306406;33;20007;-71
2023/01/11 13:17:20;;;;;;;;;;;;;;;5.92;100.00;98707.59;4293247;33;19979;-71
2023/01/11 13:19:46;;;;;;;;;;;;;;;6.33;100.00;98697.97;4296073;33;19949;-72
2023/01/11 13:22:17;;;;;;;;;;;;;;;6.19;100.00;98692.03;4293197;33;20072;-71
2023/01/11 13:24:48;;;;;;;;;;;;;;;6.37;100.00;98697.28;4280014;33;20475;-75
2023/01/11 13:27:21;;;;;;;;;;;;;;;6.18;100.00;98703.75;4281237;33;19951;-72
2023/01/11 13:29:49;;;;;;;;;;;;;;;6.05;100.00;98712.78;4281249;33;20355;-72
2023/01/11 13:32:25;;;;;;;;;;;;;;;6.42;100.00;98712.63;4263877;33;19964;-72
2023/01/11 13:34:51;;;;;;;;;;;;;;;6.27;100.00;98710.41;4267404;33;19953;-72
2023/01/11 13:37:17;;;;;;;;;;;;;;;5.98;100.00;98718.25;4266556;33;19972;-73
2023/01/11 13:39:55;;;;;;;;;;;;;;;5.95;100.00;98713.31;4267099;33;19984;-72
2023/01/11 13:42:25;;;;;;;;;;;;;;;6.16;100.00;98717.34;4264762;33;19953;-71
2023/01/11 13:44:58;;;;;;;;;;;;;;;6.11;100.00;98724.41;4265413;33;20312;-72
2023/01/11 13:47:34;;;;;;;;;;;;;;;6.12;100.00;98713.50;4236697;33;19986;-71
2023/01/11 13:50:02;;;;;;;;;;;;;;;5.96;100.00;98708.78;4221965;34;19943;-71
2023/01/11 13:52:46;;;;;;;;;;;;;;;6.23;100.00;98716.44;4224566;34;19958;-71
2023/01/11 13:55:23;;;;;;;;;;;;;;;5.74;100.00;98717.28;4228255;33;19961;-71
2023/01/11 13:57:53;;;;;;;;;;;;;;;5.93;100.00;98714.56;4225693;34;20058;-72
2023/01/11 14:00:40;;;;;;;;;;;;;;;6.30;100.00;98701.09;4238416;33;20333;-72
2023/01/11 14:03:14;;;;;;;;;;;;;;;6.11;100.00;98700.34;4240320;33;19986;-72
2023/01/11 14:05:48;;;;;;;;;;;;;;;5.77;100.00;98706.13;4254438;33;19971;-72
2023/01/11 14:08:28;;;;;;;;;;;;;;;6.07;100.00;98696.53;4224161;34;19950;-73
2023/01/11 14:11:07;;;;;;;;;;;;;;;5.87;100.00;98699.44;4221310;34;19961;-73
2023/01/11 14:16:37;;;;;;;;;;;;;;;6.03;100.00;98704.19;4222352;34;20018;-73
2023/01/11 14:19:22;;;;;;;;;;;;;;;5.79;100.00;98697.91;4222568;34;20399;-72
2023/01/11 14:21:56;;;;;;;;;;;;;;;5.85;100.00;98706.88;4221527;34;19953;-72
2023/01/11 14:24:24;;;;;;;;;;;;;;;5.69;100.00;98701.12;4220139;34;19982;-72
2023/01/11 14:27:11;;;;;;;;;;;;;;;5.67;100.00;98711.22;4210875;34;19957;-72
2023/01/11 14:29:37;;;;;;;;;;;;;;;5.48;100.00;98706.94;4218299;34;19960;-73
2023/01/11 14:32:20;;;;;;;;;;;;;;;5.22;100.00;98700.91;4255955;33;19957;-74
2023/01/11 14:34:52;;;;;;;;;;;;;;;5.07;100.00;98707.41;4275915;33;19981;-74
2023/01/11 14:37:18;;;;;;;;;;;;;;;5.22;100.00;98708.91;4277913;33;19963;-74
2023/01/11 14:39:50;;;;;;;;;;;;;;;5.37;100.00;98712.00;4279207;33;19989;-75
2023/01/11 14:42:37;;;;;;;;;;;;;;;5.71;100.00;98701.72;4281245;33;19956;-74
2023/01/11 14:45:19;;;;;;;;;;;;;;;4.98;100.00;98707.91;4281818;33;19941;-74
2023/01/11 14:47:54;;;;;;;;;;;;;;;5.14;100.00;98706.50;4310853;33;19954;-74
2023/01/11 14:50:21;;;;;;;;;;;;;;;5.22;100.00;98707.03;4311504;33;20334;-75
2023/01/11 14:52:49;;;;;;;;;;;;;;;4.99;100.00;98702.34;4309031;33;19951;-75
2023/01/11 14:55:24;;;;;;;;;;;;;;;4.81;100.00;98705.00;4310257;33;19953;-74
2023/01/11 14:57:53;;;;;;;;;;;;;;;4.64;100.00;98700.25;4310027;33;19945;-75
2023/01/11 15:00:20;;;;;;;;;;;;;;;4.58;100.00;98698.44;4308981;33;20002;-74
2023/01/11 15:02:50;;;;;;;;;;;;;;;4.72;100.00;98689.28;4310859;33;20016;-75
2023/01/11 15:05:32;;;;;;;;;;;;;;;5.06;100.00;98688.97;4311816;33;20067;-75
2023/01/11 15:08:13;;;;;;;;;;;;;;;4.91;100.00;98686.62;4312729;33;20365;-74
2023/01/11 15:10:43;;;;;;;;;;;;;;;4.89;100.00;98678.03;4310590;33;20251;-73
2023/01/11 15:13:15;;;;;;;;;;;;;;;5.08;100.00;98686.88;4311959;33;19949;-75
2023/01/11 15:18:27;;;;;;;;;;;;;;;4.83;100.00;98694.91;4306915;33;19953;-73
2023/01/11 15:20:55;;;;;;;;;;;;;;;4.77;100.00;98685.13;4309031;33;19979;-73
2023/01/11 15:23:24;;;;;;;;;;;;;;;4.90;100.00;98679.69;4275955;33;20339;-75
2023/01/11 15:26:01;;;;;;;;;;;;;;;4.89;100.00;98683.37;4274699;33;20647;-73
2023/01/11 15:28:33;;;;;;;;;;;;;;;5.37;100.00;98679.94;4273423;33;19979;-74
2023/01/11 15:31:04;;;;;;;;;;;;;;;5.06;100.00;98679.09;4234968;33;19954;-74
2023/01/11 15:33:47;;;;;;;;;;;;;;;5.00;100.00;98674.63;4236980;33;20020;-73
2023/01/11 15:36:15;;;;;;;;;;;;;;;5.00;100.00;98674.63;4238757;33;20358;-73